Terminal Aerodrome Forecast
Issued by NWS

Home | Current Version | Previous Version | Text Only | Print | Product List | Glossary On
Versions: 1 2 3 4 5 6 7 8 9 10 11 12 13 14 15 16 17 18 19 20 21 22 23 24 25
000
FTUS41 KGYX 242320
TAFLEB
TAF
KLEB 242320Z 2500/2524 VRB03KT P6SM SCT250
     FM250930 VRB03KT 1/2SM FG BKN001
     FM251300 20007KT P6SM SCT120 BKN250
     FM252100 21009KT P6SM BKN060=

USA.gov is the U.S. government's official web portal to all federal, state and local government web resources and services.